Time;durP1;ratioP1;P1;durP2;ratioP2;P2;SDS_P1;SDS_P2;PMS_P1;PMS_P2;Temp;Humidity;BMP_temperature;BMP_pressure;BME280_temperature;BME280_humidity;BME280_pressure;Samples;Min_cycle;Max_cycle;Signal;HPM_P1;HPM_P2
2021/12/06 00:01:06;;;;;;;1.13;0.90;;;;;;;;;;5077446;28;20875;-64
2021/12/06 00:03:39;;;;;;;0.63;0.60;;;;;;;;;;5077691;28;20484;-64
2021/12/06 00:06:07;;;;;;;0.83;0.83;;;;;;;;;;5077282;28;20817;-64
2021/12/06 00:08:37;;;;;;;0.77;0.70;;;;;;;;;;5076912;28;20475;-64
2021/12/06 00:11:08;;;;;;;0.73;0.73;;;;;;;;;;5077633;28;20444;-64
2021/12/06 00:13:37;;;;;;;1.57;0.90;;;;;;;;;;5077591;28;20444;-64
2021/12/06 00:16:09;;;;;;;0.80;0.73;;;;;;;;;;5093418;28;20503;-64
2021/12/06 00:18:37;;;;;;;0.70;0.70;;;;;;;;;;5097746;28;20546;-64
2021/12/06 00:21:05;;;;;;;0.80;0.60;;;;;;;;;;5093720;28;20463;-64
2021/12/06 00:23:34;;;;;;;2.73;1.00;;;;;;;;;;5076910;28;20471;-64
2021/12/06 00:26:04;;;;;;;0.63;0.63;;;;;;;;;;5077609;28;20444;-64
2021/12/06 00:28:32;;;;;;;0.60;0.60;;;;;;;;;;5086306;28;20465;-64
2021/12/06 00:31:00;;;;;;;0.70;0.70;;;;;;;;;;5082622;28;20943;-64
2021/12/06 00:33:29;;;;;;;0.53;0.50;;;;;;;;;;5081230;28;20504;-64
2021/12/06 00:36:03;;;;;;;0.60;0.60;;;;;;;;;;5081013;28;20525;-64
2021/12/06 00:38:32;;;;;;;0.50;0.50;;;;;;;;;;5084990;28;20464;-64
2021/12/06 00:41:00;;;;;;;0.80;0.77;;;;;;;;;;5081018;28;20444;-64
2021/12/06 00:43:29;;;;;;;0.63;0.63;;;;;;;;;;5081386;28;20487;-65
2021/12/06 00:45:58;;;;;;;1.10;0.70;;;;;;;;;;5081419;28;20533;-64
2021/12/06 00:48:26;;;;;;;0.73;0.73;;;;;;;;;;5081139;28;20470;-64
2021/12/06 00:50:55;;;;;;;0.80;0.80;;;;;;;;;;5081034;28;20448;-64
2021/12/06 00:53:23;;;;;;;0.77;0.60;;;;;;;;;;5080429;28;20969;-64
2021/12/06 00:55:51;;;;;;;1.13;0.87;;;;;;;;;;5080789;28;20486;-64
2021/12/06 00:58:19;;;;;;;0.80;0.80;;;;;;;;;;5080637;28;20472;-65
2021/12/06 01:00:50;;;;;;;0.77;0.77;;;;;;;;;;5081033;28;20206;-64
2021/12/06 01:03:20;;;;;;;0.60;0.60;;;;;;;;;;5080714;28;20439;-65
2021/12/06 01:05:49;;;;;;;0.60;0.60;;;;;;;;;;5080510;28;20230;-64
2021/12/06 01:08:17;;;;;;;0.70;0.70;;;;;;;;;;5080377;28;20551;-64
2021/12/06 01:10:45;;;;;;;0.70;0.70;;;;;;;;;;5080351;28;20482;-64
2021/12/06 01:13:14;;;;;;;0.70;0.70;;;;;;;;;;5080499;28;20974;-64
2021/12/06 01:15:42;;;;;;;0.67;0.67;;;;;;;;;;5093056;28;20878;-64
2021/12/06 01:18:14;;;;;;;0.70;0.70;;;;;;;;;;5100640;28;20464;-64
2021/12/06 01:20:49;;;;;;;1.03;0.50;;;;;;;;;;5100305;28;20517;-64
2021/12/06 01:23:20;;;;;;;0.80;0.80;;;;;;;;;;5080277;28;21228;-64
2021/12/06 01:25:57;;;;;;;0.67;0.67;;;;;;;;;;5080293;28;20575;-64
2021/12/06 01:28:58;;;;;;;0.80;0.80;;;;;;;;;;5084311;28;20811;-64
2021/12/06 01:31:37;;;;;;;0.77;0.77;;;;;;;;;;5080064;28;20319;-64
2021/12/06 01:39:08;;;;;;;0.67;0.67;;;;;;;;;;5079969;28;20514;-64
2021/12/06 01:39:43;;;;;;;0.87;0.80;;;;;;;;;;5082674;28;20475;-64
2021/12/06 01:42:11;;;;;;;1.40;0.90;;;;;;;;;;5079951;28;20931;-65
2021/12/06 01:44:40;;;;;;;1.23;0.97;;;;;;;;;;5080239;28;20226;-64
2021/12/06 01:47:09;;;;;;;0.70;0.70;;;;;;;;;;5080183;28;20446;-64
2021/12/06 01:49:40;;;;;;;0.70;0.70;;;;;;;;;;5080191;28;20470;-66
2021/12/06 01:52:09;;;;;;;0.80;0.50;;;;;;;;;;5079712;28;20202;-65
2021/12/06 01:54:37;;;;;;;1.53;0.87;;;;;;;;;;5079688;28;20205;-65
2021/12/06 01:57:05;;;;;;;0.90;0.90;;;;;;;;;;5086542;28;20209;-65
2021/12/06 01:59:33;;;;;;;1.03;0.50;;;;;;;;;;5099860;28;20226;-65
2021/12/06 02:02:02;;;;;;;0.53;0.50;;;;;;;;;;5100109;28;20206;-65
2021/12/06 02:04:32;;;;;;;0.60;0.60;;;;;;;;;;5101392;28;20444;-65
2021/12/06 02:07:02;;;;;;;0.80;0.80;;;;;;;;;;5099897;28;20471;-65
2021/12/06 02:09:30;;;;;;;0.70;0.70;;;;;;;;;;5099483;28;20226;-64
2021/12/06 02:12:00;;;;;;;0.93;0.80;;;;;;;;;;5099428;28;20439;-64
2021/12/06 02:14:36;;;;;;;1.40;0.80;;;;;;;;;;5099814;28;20292;-64
2021/12/06 02:17:11;;;;;;;0.80;0.80;;;;;;;;;;5099420;28;20210;-65
2021/12/06 02:19:42;;;;;;;0.67;0.67;;;;;;;;;;5087852;28;20538;-65
2021/12/06 02:22:13;;;;;;;1.60;0.90;;;;;;;;;;5090133;28;20443;-65
2021/12/06 02:24:41;;;;;;;1.03;1.00;;;;;;;;;;5090103;28;20583;-65
2021/12/06 02:27:10;;;;;;;1.67;0.97;;;;;;;;;;5089507;28;20202;-65
2021/12/06 02:29:38;;;;;;;0.73;0.73;;;;;;;;;;5088406;28;20471;-65
2021/12/06 02:32:10;;;;;;;0.93;0.90;;;;;;;;;;5087538;28;20732;-65
2021/12/06 02:34:39;;;;;;;2.63;0.90;;;;;;;;;;5089598;28;20262;-65
2021/12/06 02:37:07;;;;;;;1.70;0.80;;;;;;;;;;5088127;28;20315;-65
2021/12/06 02:39:37;;;;;;;0.90;0.90;;;;;;;;;;5091189;28;20797;-65
2021/12/06 02:42:05;;;;;;;0.60;0.60;;;;;;;;;;5089290;28;20300;-65
2021/12/06 02:44:33;;;;;;;0.90;0.90;;;;;;;;;;5086675;28;20437;-65
2021/12/06 02:47:02;;;;;;;1.17;1.03;;;;;;;;;;5084985;28;20218;-65
2021/12/06 02:49:30;;;;;;;1.00;0.80;;;;;;;;;;5087493;28;20304;-65
2021/12/06 02:51:58;;;;;;;1.00;1.00;;;;;;;;;;5086845;28;20202;-65
2021/12/06 02:54:27;;;;;;;0.63;0.63;;;;;;;;;;5088208;28;20198;-65
2021/12/06 02:57:18;;;;;;;0.90;0.90;;;;;;;;;;5091097;28;20290;-65
2021/12/06 02:59:45;;;;;;;0.87;0.87;;;;;;;;;;5086723;28;20226;-65
2021/12/06 03:02:16;;;;;;;1.87;1.00;;;;;;;;;;5087295;28;20289;-65
2021/12/06 03:04:45;;;;;;;1.03;1.03;;;;;;;;;;5089079;28;20233;-65
2021/12/06 03:07:15;;;;;;;1.00;1.00;;;;;;;;;;5087575;28;20479;-65
2021/12/06 03:09:43;;;;;;;0.90;0.80;;;;;;;;;;5091149;28;20217;-65
2021/12/06 03:12:17;;;;;;;0.93;0.90;;;;;;;;;;5088423;28;20204;-65
2021/12/06 03:14:47;;;;;;;0.80;0.80;;;;;;;;;;5090968;28;20456;-65
2021/12/06 03:17:16;;;;;;;0.87;0.87;;;;;;;;;;5087646;28;20281;-65
2021/12/06 03:19:44;;;;;;;0.97;0.97;;;;;;;;;;5087720;28;20589;-65
2021/12/06 03:22:13;;;;;;;1.10;1.00;;;;;;;;;;5088878;28;20523;-65
2021/12/06 03:24:42;;;;;;;1.20;1.10;;;;;;;;;;5087791;28;20463;-65
2021/12/06 03:27:10;;;;;;;0.83;0.70;;;;;;;;;;5096811;28;20514;-65
2021/12/06 03:29:40;;;;;;;0.90;0.90;;;;;;;;;;5085092;28;20463;-65
2021/12/06 03:32:08;;;;;;;0.70;0.70;;;;;;;;;;5077538;28;21028;-65
2021/12/06 03:34:37;;;;;;;0.87;0.87;;;;;;;;;;5077707;28;20957;-65
2021/12/06 03:37:06;;;;;;;1.03;0.80;;;;;;;;;;5077322;28;20833;-65
2021/12/06 03:39:36;;;;;;;1.00;1.00;;;;;;;;;;5088956;28;20547;-65
2021/12/06 03:42:05;;;;;;;0.93;0.80;;;;;;;;;;5097898;28;20806;-65
2021/12/06 03:44:34;;;;;;;2.30;1.37;;;;;;;;;;5097638;28;20444;-65
2021/12/06 03:47:07;;;;;;;0.87;0.87;;;;;;;;;;5097851;28;20485;-65
2021/12/06 03:49:35;;;;;;;0.90;0.90;;;;;;;;;;5098491;28;20467;-65
2021/12/06 03:52:03;;;;;;;0.90;0.90;;;;;;;;;;5097759;28;20518;-65
2021/12/06 03:54:32;;;;;;;1.03;0.93;;;;;;;;;;5097848;28;20519;-65
2021/12/06 03:57:01;;;;;;;0.77;0.77;;;;;;;;;;5097928;28;20436;-65
2021/12/06 03:59:30;;;;;;;0.90;0.90;;;;;;;;;;5097515;28;20820;-65
2021/12/06 04:01:58;;;;;;;1.90;1.10;;;;;;;;;;5097422;28;20444;-65
2021/12/06 04:04:27;;;;;;;1.80;0.83;;;;;;;;;;5097501;28;20838;-65
2021/12/06 04:06:55;;;;;;;1.07;0.97;;;;;;;;;;5097678;28;20475;-65
2021/12/06 04:09:24;;;;;;;1.13;1.10;;;;;;;;;;5097591;28;20533;-65
2021/12/06 04:11:52;;;;;;;1.57;1.27;;;;;;;;;;5097501;28;20469;-65
2021/12/06 04:14:20;;;;;;;2.87;1.90;;;;;;;;;;5097453;28;20439;-65
2021/12/06 04:16:48;;;;;;;2.10;2.00;;;;;;;;;;5097567;28;20447;-65
2021/12/06 04:19:16;;;;;;;3.60;2.53;;;;;;;;;;5097373;28;20459;-65
2021/12/06 04:21:46;;;;;;;4.63;2.60;;;;;;;;;;5088473;28;20456;-65
2021/12/06 04:24:14;;;;;;;3.10;2.50;;;;;;;;;;5077139;28;20512;-65
2021/12/06 04:26:42;;;;;;;2.73;2.40;;;;;;;;;;5077410;28;20483;-65
2021/12/06 04:29:11;;;;;;;2.80;2.30;;;;;;;;;;5083924;28;20532;-65
2021/12/06 04:31:40;;;;;;;2.57;2.40;;;;;;;;;;5077358;28;20509;-65
2021/12/06 04:34:08;;;;;;;2.67;2.47;;;;;;;;;;5076970;28;20444;-65
2021/12/06 04:36:38;;;;;;;2.70;2.10;;;;;;;;;;5076866;28;20833;-65
2021/12/06 04:39:09;;;;;;;4.30;2.67;;;;;;;;;;5080310;28;20496;-65
2021/12/06 04:41:37;;;;;;;2.20;2.00;;;;;;;;;;5077299;28;20455;-65
2021/12/06 04:44:06;;;;;;;1.93;1.77;;;;;;;;;;5077017;28;20479;-65
2021/12/06 04:46:34;;;;;;;1.90;1.80;;;;;;;;;;5077268;28;20486;-65
2021/12/06 04:49:02;;;;;;;2.50;2.30;;;;;;;;;;5077255;28;20464;-65
2021/12/06 04:51:30;;;;;;;2.10;2.00;;;;;;;;;;5076983;28;20450;-65
2021/12/06 04:53:59;;;;;;;2.13;1.97;;;;;;;;;;5076682;28;20792;-65
2021/12/06 04:56:31;;;;;;;2.73;2.07;;;;;;;;;;5076829;28;20928;-65
2021/12/06 04:59:01;;;;;;;3.30;2.10;;;;;;;;;;5077168;28;20468;-65
2021/12/06 05:01:30;;;;;;;2.17;1.93;;;;;;;;;;5077082;28;20454;-65
2021/12/06 05:04:00;;;;;;;1.90;1.80;;;;;;;;;;5076790;28;20440;-65
2021/12/06 05:06:30;;;;;;;2.10;1.90;;;;;;;;;;5076641;28;20538;-65
2021/12/06 05:09:00;;;;;;;2.57;2.13;;;;;;;;;;5076483;28;20471;-65
2021/12/06 05:11:30;;;;;;;2.23;2.03;;;;;;;;;;5076892;28;20449;-65
2021/12/06 05:14:00;;;;;;;2.60;2.00;;;;;;;;;;5078703;28;20444;-65
2021/12/06 05:16:28;;;;;;;2.60;2.40;;;;;;;;;;5099389;28;20450;-65
2021/12/06 05:18:56;;;;;;;2.50;2.30;;;;;;;;;;5100562;28;20462;-63
2021/12/06 05:21:25;;;;;;;4.00;2.30;;;;;;;;;;5091635;28;21029;-64
2021/12/06 05:23:53;;;;;;;2.20;1.70;;;;;;;;;;5087398;28;20428;-64
2021/12/06 05:26:21;;;;;;;2.03;1.83;;;;;;;;;;5089468;28;20451;-63
2021/12/06 05:28:55;;;;;;;2.30;2.10;;;;;;;;;;5090892;28;20455;-64
2021/12/06 05:31:24;;;;;;;3.53;2.17;;;;;;;;;;5089082;28;20519;-63
2021/12/06 05:33:56;;;;;;;3.00;2.47;;;;;;;;;;5091385;28;20452;-64
2021/12/06 05:36:24;;;;;;;2.03;1.93;;;;;;;;;;5092892;28;20570;-64
2021/12/06 05:38:53;;;;;;;2.00;1.90;;;;;;;;;;5091112;28;20524;-64
2021/12/06 05:41:21;;;;;;;2.10;1.90;;;;;;;;;;5092298;28;20440;-64
2021/12/06 05:43:51;;;;;;;2.33;2.13;;;;;;;;;;5096753;28;20802;-64
2021/12/06 05:46:19;;;;;;;2.33;2.13;;;;;;;;;;5100241;28;20444;-64
2021/12/06 05:48:47;;;;;;;1.93;1.83;;;;;;;;;;5100479;28;20463;-64
2021/12/06 05:51:15;;;;;;;3.63;2.17;;;;;;;;;;5100037;28;20881;-64
2021/12/06 05:53:43;;;;;;;1.70;1.60;;;;;;;;;;5100142;28;20932;-64
2021/12/06 05:56:11;;;;;;;2.63;2.10;;;;;;;;;;5100131;28;20448;-64
2021/12/06 05:58:39;;;;;;;2.27;2.07;;;;;;;;;;5095271;28;20474;-65
2021/12/06 06:01:09;;;;;;;42.43;25.00;;;;;;;;;;5080620;28;20537;-64
2021/12/06 06:03:42;;;;;;;5.10;3.97;;;;;;;;;;5089237;28;20914;-64
2021/12/06 06:06:10;;;;;;;3.23;2.93;;;;;;;;;;5087242;28;20444;-64
2021/12/06 06:08:39;;;;;;;2.47;2.27;;;;;;;;;;5091015;28;20478;-64
2021/12/06 06:11:07;;;;;;;2.50;2.30;;;;;;;;;;5079592;28;20504;-64
2021/12/06 06:13:35;;;;;;;2.00;1.90;;;;;;;;;;5079674;28;20440;-63
2021/12/06 06:16:02;;;;;;;2.27;2.10;;;;;;;;;;5094628;28;20440;-63
2021/12/06 06:18:32;;;;;;;3.13;2.50;;;;;;;;;;5083116;28;20456;-64
2021/12/06 06:21:00;;;;;;;2.10;1.90;;;;;;;;;;5082868;28;20447;-64
2021/12/06 06:23:28;;;;;;;2.20;2.10;;;;;;;;;;5082167;28;20452;-64
2021/12/06 06:25:57;;;;;;;2.07;1.97;;;;;;;;;;5078577;28;20440;-64
2021/12/06 06:28:25;;;;;;;2.13;1.93;;;;;;;;;;5082754;28;20560;-64
2021/12/06 06:30:53;;;;;;;2.13;2.00;;;;;;;;;;5087495;28;20958;-64
2021/12/06 06:33:21;;;;;;;2.20;2.10;;;;;;;;;;5078898;28;20788;-64
2021/12/06 06:35:51;;;;;;;2.30;2.13;;;;;;;;;;5078713;28;20476;-64
2021/12/06 06:38:19;;;;;;;3.37;2.30;;;;;;;;;;5080558;28;20460;-64
2021/12/06 06:40:47;;;;;;;2.37;2.17;;;;;;;;;;5086546;28;20451;-64
2021/12/06 06:43:15;;;;;;;3.20;2.13;;;;;;;;;;5078764;28;20445;-64
2021/12/06 06:45:43;;;;;;;2.53;2.33;;;;;;;;;;5078702;28;20966;-64
2021/12/06 06:48:12;;;;;;;2.53;2.00;;;;;;;;;;5078314;28;20524;-64
2021/12/06 06:50:40;;;;;;;2.33;2.13;;;;;;;;;;5088920;28;20440;-64
2021/12/06 06:53:09;;;;;;;2.57;2.00;;;;;;;;;;5090817;28;20440;-64
2021/12/06 06:55:37;;;;;;;2.00;1.90;;;;;;;;;;5078581;28;21027;-64
2021/12/06 06:58:05;;;;;;;2.57;2.10;;;;;;;;;;5078303;28;20464;-64
2021/12/06 07:00:35;;;;;;;2.63;1.93;;;;;;;;;;5080818;28;20439;-64
2021/12/06 07:03:03;;;;;;;2.20;2.00;;;;;;;;;;5090437;28;20467;-64
2021/12/06 07:05:32;;;;;;;2.37;2.27;;;;;;;;;;5088705;28;20440;-64
2021/12/06 07:08:00;;;;;;;2.60;2.40;;;;;;;;;;5090212;28;20566;-64
2021/12/06 07:10:29;;;;;;;2.33;2.13;;;;;;;;;;5090051;28;20504;-64
2021/12/06 07:13:00;;;;;;;2.50;2.30;;;;;;;;;;5088910;28;20440;-64
2021/12/06 07:15:29;;;;;;;2.10;1.90;;;;;;;;;;5086436;28;20433;-64
2021/12/06 07:17:57;;;;;;;2.50;2.30;;;;;;;;;;5088968;28;20446;-64
2021/12/06 07:20:25;;;;;;;2.40;2.20;;;;;;;;;;5085654;28;20447;-64
2021/12/06 07:22:55;;;;;;;2.13;1.97;;;;;;;;;;5092176;28;20497;-64
2021/12/06 07:25:27;;;;;;;2.30;2.10;;;;;;;;;;5091131;28;20441;-65
2021/12/06 07:27:58;;;;;;;2.50;2.30;;;;;;;;;;5089263;28;21018;-64
2021/12/06 07:30:26;;;;;;;2.40;2.20;;;;;;;;;;5085681;28;20519;-64
2021/12/06 07:32:54;;;;;;;3.07;2.30;;;;;;;;;;5094367;28;20447;-64
2021/12/06 07:35:23;;;;;;;2.20;2.07;;;;;;;;;;5088370;28;20461;-65
2021/12/06 07:37:51;;;;;;;3.20;3.00;;;;;;;;;;5088187;28;20458;-64
2021/12/06 07:40:19;;;;;;;2.30;2.20;;;;;;;;;;5090548;28;20436;-64
2021/12/06 07:42:48;;;;;;;1.93;1.80;;;;;;;;;;5088345;28;20447;-65
2021/12/06 07:45:17;;;;;;;2.40;2.20;;;;;;;;;;5091002;28;20526;-65
2021/12/06 07:47:46;;;;;;;2.50;2.20;;;;;;;;;;5088076;28;20476;-64
2021/12/06 07:50:16;;;;;;;2.40;2.30;;;;;;;;;;5090081;28;20436;-64
2021/12/06 07:52:47;;;;;;;3.03;2.73;;;;;;;;;;5090178;28;20842;-65
2021/12/06 07:55:16;;;;;;;4.00;2.60;;;;;;;;;;5088982;28;20436;-64
2021/12/06 07:57:45;;;;;;;3.10;2.80;;;;;;;;;;5079922;28;20442;-64
2021/12/06 08:00:14;;;;;;;3.43;2.83;;;;;;;;;;5088234;28;20444;-64
2021/12/06 08:02:44;;;;;;;2.90;2.60;;;;;;;;;;5086869;28;20540;-64
2021/12/06 08:05:32;;;;;;;3.07;2.77;;;;;;;;;;5087295;28;20445;-64
2021/12/06 08:08:03;;;;;;;2.60;2.40;;;;;;;;;;5088036;28;20563;-64
2021/12/06 08:10:32;;;;;;;3.60;2.90;;;;;;;;;;5089467;28;20843;-65
2021/12/06 08:13:00;;;;;;;2.90;2.70;;;;;;;;;;5089441;28;20437;-64
2021/12/06 08:15:28;;;;;;;2.40;2.30;;;;;;;;;;5089306;28;20440;-64
2021/12/06 08:17:58;;;;;;;3.17;2.80;;;;;;;;;;5089518;28;20440;-64
2021/12/06 08:20:26;;;;;;;2.80;2.60;;;;;;;;;;5086515;28;20440;-64
2021/12/06 08:22:54;;;;;;;3.97;2.93;;;;;;;;;;5089078;28;20446;-64
2021/12/06 08:25:23;;;;;;;3.17;2.87;;;;;;;;;;5088992;28;20440;-66
2021/12/06 08:27:51;;;;;;;3.83;2.67;;;;;;;;;;5089148;28;20445;-65
2021/12/06 08:30:22;;;;;;;3.53;3.00;;;;;;;;;;5089739;28;20440;-66
2021/12/06 08:32:50;;;;;;;2.50;2.30;;;;;;;;;;5088341;28;20465;-66
2021/12/06 08:35:34;;;;;;;3.30;2.87;;;;;;;;;;5088175;28;20504;-66
2021/12/06 08:38:03;;;;;;;2.70;2.50;;;;;;;;;;5090066;28;20447;-66
2021/12/06 08:40:31;;;;;;;12.23;5.07;;;;;;;;;;5088359;28;20809;-66
2021/12/06 08:42:59;;;;;;;3.37;2.60;;;;;;;;;;5087984;28;20441;-66
2021/12/06 08:45:28;;;;;;;2.90;2.60;;;;;;;;;;5088661;28;20433;-66
2021/12/06 08:47:56;;;;;;;3.10;2.90;;;;;;;;;;5088594;28;20445;-66
2021/12/06 08:50:26;;;;;;;2.60;2.10;;;;;;;;;;5092090;28;20437;-66
2021/12/06 08:52:55;;;;;;;2.77;2.57;;;;;;;;;;5093632;28;20800;-66
2021/12/06 08:55:24;;;;;;;3.53;2.00;;;;;;;;;;5091626;28;20517;-66
2021/12/06 08:57:53;;;;;;;3.33;2.70;;;;;;;;;;5094219;28;20518;-66
2021/12/06 09:00:23;;;;;;;2.93;2.67;;;;;;;;;;5091352;28;20435;-66
2021/12/06 09:02:52;;;;;;;3.10;2.77;;;;;;;;;;5093890;28;20810;-66
2021/12/06 09:05:24;;;;;;;2.83;2.47;;;;;;;;;;5090987;28;20844;-66
2021/12/06 09:07:53;;;;;;;2.73;2.20;;;;;;;;;;5094097;28;20440;-66
2021/12/06 09:10:22;;;;;;;6.30;2.10;;;;;;;;;;5092701;28;20475;-66
2021/12/06 09:12:51;;;;;;;2.67;2.43;;;;;;;;;;5091939;28;20432;-65
2021/12/06 09:15:21;;;;;;;2.63;2.43;;;;;;;;;;5094160;28;20444;-66
2021/12/06 09:17:49;;;;;;;2.63;2.43;;;;;;;;;;5091394;28;20436;-66
2021/12/06 09:20:20;;;;;;;2.93;2.47;;;;;;;;;;5090893;28;20503;-66
2021/12/06 09:22:48;;;;;;;3.80;3.03;;;;;;;;;;5091317;28;20449;-66
2021/12/06 09:25:17;;;;;;;2.83;2.43;;;;;;;;;;5091705;28;20448;-65
2021/12/06 09:27:47;;;;;;;2.60;2.40;;;;;;;;;;5095802;28;20519;-66
2021/12/06 09:30:17;;;;;;;2.47;2.27;;;;;;;;;;5094009;28;20308;-66
2021/12/06 09:32:45;;;;;;;3.73;2.60;;;;;;;;;;5091399;28;20440;-65
2021/12/06 09:35:18;;;;;;;2.73;2.43;;;;;;;;;;5090756;28;20440;-66
2021/12/06 09:37:46;;;;;;;4.07;3.00;;;;;;;;;;5088541;28;21001;-66
2021/12/06 09:40:15;;;;;;;2.17;2.00;;;;;;;;;;5084228;28;20523;-66
2021/12/06 09:42:43;;;;;;;3.17;2.63;;;;;;;;;;5083393;28;20467;-66
2021/12/06 09:45:14;;;;;;;5.07;4.57;;;;;;;;;;5100686;28;20877;-66
2021/12/06 09:47:49;;;;;;;3.30;2.60;;;;;;;;;;5100847;28;20450;-66
2021/12/06 09:50:18;;;;;;;2.50;2.27;;;;;;;;;;5096451;28;20484;-66
2021/12/06 09:52:46;;;;;;;3.50;2.57;;;;;;;;;;5079324;28;20445;-66
2021/12/06 09:55:14;;;;;;;3.50;2.63;;;;;;;;;;5086675;28;20938;-66
2021/12/06 09:57:42;;;;;;;2.20;2.00;;;;;;;;;;5099371;28;20213;-66
2021/12/06 10:00:13;;;;;;;2.67;2.47;;;;;;;;;;5097616;28;20204;-66
2021/12/06 10:02:43;;;;;;;2.60;2.40;;;;;;;;;;5090000;28;20438;-66
2021/12/06 10:05:11;;;;;;;3.77;2.50;;;;;;;;;;5090336;28;20440;-66
2021/12/06 10:07:40;;;;;;;3.03;2.67;;;;;;;;;;5088550;28;20202;-65
2021/12/06 10:10:09;;;;;;;2.93;2.60;;;;;;;;;;5092651;28;20217;-66
2021/12/06 10:12:37;;;;;;;4.27;2.57;;;;;;;;;;5091225;28;20935;-66
2021/12/06 10:15:05;;;;;;;3.43;2.83;;;;;;;;;;5092681;28;20440;-66
2021/12/06 10:17:34;;;;;;;3.27;2.27;;;;;;;;;;5083218;28;21008;-66
2021/12/06 10:20:04;;;;;;;3.67;2.27;;;;;;;;;;5079015;28;20551;-66
2021/12/06 10:22:32;;;;;;;3.13;2.83;;;;;;;;;;5078345;28;20452;-67
2021/12/06 10:25:00;;;;;;;4.33;2.70;;;;;;;;;;5078817;28;20444;-66
2021/12/06 10:27:52;;;;;;;3.37;2.40;;;;;;;;;;5078267;28;20799;-67
2021/12/06 10:30:20;;;;;;;2.23;2.03;;;;;;;;;;5084683;28;20487;-66
2021/12/06 10:32:48;;;;;;;2.57;1.90;;;;;;;;;;5078838;28;20531;-66
2021/12/06 10:35:17;;;;;;;1.80;1.70;;;;;;;;;;5078290;28;20815;-66
2021/12/06 10:37:47;;;;;;;1.60;1.50;;;;;;;;;;5078230;28;20975;-66
2021/12/06 10:40:18;;;;;;;2.80;2.07;;;;;;;;;;5081410;28;20445;-66
2021/12/06 10:42:47;;;;;;;2.30;2.10;;;;;;;;;;5078306;28;20806;-66
2021/12/06 10:45:16;;;;;;;5.73;2.10;;;;;;;;;;5078672;28;21007;-66
2021/12/06 10:47:45;;;;;;;4.07;1.93;;;;;;;;;;5082245;28;20927;-66
2021/12/06 10:50:14;;;;;;;1.97;1.87;;;;;;;;;;5089966;28;20479;-66
2021/12/06 10:52:51;;;;;;;4.67;1.63;;;;;;;;;;5091719;28;20446;-65
2021/12/06 10:55:20;;;;;;;1.10;1.10;;;;;;;;;;5089139;28;20461;-65
2021/12/06 10:57:49;;;;;;;1.60;1.50;;;;;;;;;;5092827;28;20439;-65
2021/12/06 11:00:36;;;;;;;1.80;1.70;;;;;;;;;;5096464;28;21010;-67
2021/12/06 11:03:05;;;;;;;1.70;1.60;;;;;;;;;;5088859;28;20440;-65
2021/12/06 11:05:35;;;;;;;3.70;1.83;;;;;;;;;;5090953;28;20927;-65
2021/12/06 11:08:11;;;;;;;1.97;1.60;;;;;;;;;;5088448;28;20459;-65
2021/12/06 11:10:41;;;;;;;2.10;1.90;;;;;;;;;;5087988;28;20471;-65
2021/12/06 11:13:13;;;;;;;1.50;1.40;;;;;;;;;;5095029;28;20805;-64
2021/12/06 11:15:51;;;;;;;1.60;1.50;;;;;;;;;;5096051;28;20523;-65
2021/12/06 11:18:29;;;;;;;1.90;1.80;;;;;;;;;;5098342;28;20459;-65
2021/12/06 11:20:58;;;;;;;4.70;2.43;;;;;;;;;;5097872;28;20457;-66
2021/12/06 11:23:27;;;;;;;2.57;2.17;;;;;;;;;;5084592;28;20441;-64
2021/12/06 11:26:01;;;;;;;1.87;1.77;;;;;;;;;;5095932;28;20792;-64
2021/12/06 11:28:31;;;;;;;2.30;1.47;;;;;;;;;;5082204;28;20794;-65
2021/12/06 11:31:02;;;;;;;3.13;1.80;;;;;;;;;;5081448;28;20493;-65
2021/12/06 11:33:31;;;;;;;2.23;1.40;;;;;;;;;;5077857;28;20444;-66
2021/12/06 11:36:00;;;;;;;1.33;1.23;;;;;;;;;;5077109;28;20571;-66
2021/12/06 11:38:30;;;;;;;3.80;1.40;;;;;;;;;;5081123;28;20460;-67
2021/12/06 11:41:00;;;;;;;6.77;2.70;;;;;;;;;;5079590;28;20468;-66
2021/12/06 11:43:37;;;;;;;4.97;2.60;;;;;;;;;;5080576;28;20525;-66
2021/12/06 11:46:07;;;;;;;2.80;2.60;;;;;;;;;;5077652;28;20451;-66
2021/12/06 11:48:37;;;;;;;4.73;3.00;;;;;;;;;;5078583;28;20970;-70
2021/12/06 11:51:07;;;;;;;2.73;2.50;;;;;;;;;;5078363;28;20820;-70
2021/12/06 11:53:37;;;;;;;2.93;2.53;;;;;;;;;;5078407;28;20444;-69
2021/12/06 11:56:08;;;;;;;5.37;2.60;;;;;;;;;;5097969;28;20447;-70
2021/12/06 11:58:37;;;;;;;3.23;2.53;;;;;;;;;;5097733;28;20470;-70
2021/12/06 12:01:07;;;;;;;4.00;2.90;;;;;;;;;;5097727;28;20233;-70
2021/12/06 12:03:37;;;;;;;3.43;2.20;;;;;;;;;;5097916;28;20454;-70
2021/12/06 12:06:20;;;;;;;2.20;2.00;;;;;;;;;;5097367;28;20208;-70
2021/12/06 12:09:01;;;;;;;3.13;2.57;;;;;;;;;;5097215;28;20279;-70
2021/12/06 12:11:29;;;;;;;5.80;2.63;;;;;;;;;;5097404;28;20311;-70
2021/12/06 12:13:58;;;;;;;13.10;4.67;;;;;;;;;;5097891;28;20248;-70
2021/12/06 12:16:26;;;;;;;5.30;3.40;;;;;;;;;;5097633;28;20288;-70
2021/12/06 12:18:54;;;;;;;4.70;2.43;;;;;;;;;;5097736;28;20289;-70
2021/12/06 12:24:49;;;;;;;2.80;2.60;;;;;;;;;;5081500;28;20205;-70
2021/12/06 12:27:24;;;;;;;2.57;2.43;;;;;;;;;;5081668;28;20724;-71
2021/12/06 12:29:54;;;;;;;3.20;2.40;;;;;;;;;;5090798;28;20222;-70
2021/12/06 12:32:23;;;;;;;3.13;2.17;;;;;;;;;;5081426;28;20206;-70
2021/12/06 12:34:52;;;;;;;3.40;2.30;;;;;;;;;;5081288;28;20206;-70
2021/12/06 12:37:21;;;;;;;2.87;2.20;;;;;;;;;;5080784;28;20249;-70
2021/12/06 12:40:01;;;;;;;5.27;2.33;;;;;;;;;;5087734;28;20285;-70
2021/12/06 12:42:29;;;;;;;3.10;2.13;;;;;;;;;;5081275;28;20212;-71
2021/12/06 12:44:59;;;;;;;5.43;2.20;;;;;;;;;;5081264;28;20202;-70
2021/12/06 12:47:28;;;;;;;2.47;2.10;;;;;;;;;;5081487;28;20206;-70
2021/12/06 12:49:57;;;;;;;4.57;2.67;;;;;;;;;;5081012;28;20226;-70
2021/12/06 12:52:36;;;;;;;4.57;2.87;;;;;;;;;;5080682;28;20226;-70
2021/12/06 12:55:18;;;;;;;3.83;1.90;;;;;;;;;;5094670;28;20240;-71
2021/12/06 12:57:46;;;;;;;2.50;2.30;;;;;;;;;;5101492;28;20244;-70
2021/12/06 13:00:17;;;;;;;2.37;1.80;;;;;;;;;;5101269;28;20213;-70
2021/12/06 13:02:46;;;;;;;5.73;3.00;;;;;;;;;;5100983;28;20209;-70
2021/12/06 13:05:21;;;;;;;2.47;2.27;;;;;;;;;;5101016;28;20653;-71
2021/12/06 13:08:13;;;;;;;2.03;1.90;;;;;;;;;;5100796;28;20288;-71
2021/12/06 13:10:53;;;;;;;3.43;2.07;;;;;;;;;;5100666;28;20225;-71
2021/12/06 13:13:31;;;;;;;4.73;2.73;;;;;;;;;;5100558;28;20590;-71
2021/12/06 13:16:03;;;;;;;5.90;3.70;;;;;;;;;;5100949;28;20292;-71
2021/12/06 13:19:04;;;;;;;3.90;2.90;;;;;;;;;;5100215;28;20229;-70
2021/12/06 13:21:55;;;;;;;2.60;2.40;;;;;;;;;;5096168;28;20207;-70
2021/12/06 13:24:38;;;;;;;2.67;2.47;;;;;;;;;;5079888;28;20206;-70
2021/12/06 13:27:08;;;;;;;2.87;2.13;;;;;;;;;;5080164;28;20209;-71
2021/12/06 13:29:44;;;;;;;2.53;2.33;;;;;;;;;;5090493;28;20226;-70
2021/12/06 13:32:36;;;;;;;2.30;2.10;;;;;;;;;;5080263;28;20237;-70
2021/12/06 13:35:18;;;;;;;3.07;2.87;;;;;;;;;;5072038;28;20212;-70
2021/12/06 13:37:59;;;;;;;4.13;2.70;;;;;;;;;;5100134;28;20212;-71
2021/12/06 13:40:27;;;;;;;2.73;1.90;;;;;;;;;;5087670;28;20210;-71
2021/12/06 13:42:57;;;;;;;2.03;1.83;;;;;;;;;;5079955;28;20206;-71
2021/12/06 13:45:25;;;;;;;2.37;2.17;;;;;;;;;;5079933;28;20266;-70
2021/12/06 13:48:09;;;;;;;3.53;2.10;;;;;;;;;;5079602;28;20657;-70
2021/12/06 13:50:37;;;;;;;2.60;2.10;;;;;;;;;;5079669;28;20214;-71
2021/12/06 13:53:05;;;;;;;2.20;2.00;;;;;;;;;;5079592;28;20217;-70
2021/12/06 13:55:37;;;;;;;3.07;1.97;;;;;;;;;;5097171;28;20683;-71
2021/12/06 13:58:08;;;;;;;3.63;2.93;;;;;;;;;;5100066;28;20225;-70
2021/12/06 14:00:42;;;;;;;3.67;3.07;;;;;;;;;;5100246;28;20205;-70
2021/12/06 14:03:13;;;;;;;5.10;4.50;;;;;;;;;;5100729;28;20212;-71
2021/12/06 14:05:44;;;;;;;5.30;4.30;;;;;;;;;;5099944;28;20208;-71
2021/12/06 14:08:15;;;;;;;3.03;2.73;;;;;;;;;;5099216;28;20624;-70
2021/12/06 14:10:43;;;;;;;4.03;1.60;;;;;;;;;;5099676;28;20288;-70
2021/12/06 14:13:13;;;;;;;1.57;1.47;;;;;;;;;;5099551;28;20220;-71
2021/12/06 14:15:48;;;;;;;2.67;1.20;;;;;;;;;;5099536;28;20630;-70
2021/12/06 14:18:17;;;;;;;2.10;2.00;;;;;;;;;;5099533;28;20331;-70
2021/12/06 14:20:46;;;;;;;2.30;2.10;;;;;;;;;;5099633;28;20210;-70
2021/12/06 14:23:16;;;;;;;4.83;2.53;;;;;;;;;;5080507;28;20285;-71
2021/12/06 14:25:49;;;;;;;3.00;2.50;;;;;;;;;;5079145;28;20206;-70
2021/12/06 14:28:19;;;;;;;3.20;1.93;;;;;;;;;;5086153;28;20255;-71
2021/12/06 14:30:47;;;;;;;2.70;2.23;;;;;;;;;;5084880;28;20210;-70
2021/12/06 14:33:16;;;;;;;2.13;2.00;;;;;;;;;;5078677;28;20746;-70
2021/12/06 14:35:45;;;;;;;4.73;2.10;;;;;;;;;;5078687;28;20293;-70
2021/12/06 14:38:14;;;;;;;2.30;2.10;;;;;;;;;;5080121;28;20258;-70
2021/12/06 14:40:43;;;;;;;2.27;2.00;;;;;;;;;;5082992;28;20213;-71
2021/12/06 14:43:16;;;;;;;2.80;2.60;;;;;;;;;;5078826;28;20710;-71
2021/12/06 14:45:46;;;;;;;4.97;2.30;;;;;;;;;;5078422;28;20328;-70
2021/12/06 14:48:18;;;;;;;2.10;2.00;;;;;;;;;;5078525;28;20252;-71
2021/12/06 14:51:03;;;;;;;1.70;1.60;;;;;;;;;;5078721;28;20210;-70
2021/12/06 14:53:43;;;;;;;1.90;1.80;;;;;;;;;;5079586;28;20245;-71
2021/12/06 14:56:22;;;;;;;2.77;1.90;;;;;;;;;;5098910;28;20211;-70
2021/12/06 14:59:09;;;;;;;3.50;2.00;;;;;;;;;;5098872;28;20221;-71
2021/12/06 15:01:38;;;;;;;3.00;2.40;;;;;;;;;;5099456;28;20288;-70
2021/12/06 15:04:15;;;;;;;2.47;2.13;;;;;;;;;;5099395;28;20236;-70
2021/12/06 15:06:44;;;;;;;2.17;1.93;;;;;;;;;;5098707;28;20546;-71
2021/12/06 15:09:13;;;;;;;2.87;2.10;;;;;;;;;;5098412;28;20260;-71